sensor_id;sensor_type;location;lat;lon;timestamp;pressure;altitude;pressure_sealevel;temperature;humidity
17505;BME280;8870;50.950;11.762;2024-03-08T00:03:46;98788.84;;;-0.50;100.00
17505;BME280;8870;50.950;11.762;2024-03-08T00:09:16;98789.94;;;-0.54;100.00
17505;BME280;8870;50.950;11.762;2024-03-08T00:20:35;98780.03;;;-0.67;100.00
17505;BME280;8870;50.950;11.762;2024-03-08T00:26:14;98783.91;;;-0.74;100.00
17505;BME280;8870;50.950;11.762;2024-03-08T00:31:52;98772.78;;;-0.81;100.00
17505;BME280;8870;50.950;11.762;2024-03-08T00:37:50;98776.47;;;-0.83;100.00
17505;BME280;8870;50.950;11.762;2024-03-08T00:43:23;98772.25;;;-0.87;100.00
17505;BME280;8870;50.950;11.762;2024-03-08T00:48:57;98769.06;;;-0.94;100.00
17505;BME280;8870;50.950;11.762;2024-03-08T00:54:31;98771.13;;;-0.99;100.00
17505;BME280;8870;50.950;11.762;2024-03-08T01:00:24;98770.59;;;-1.06;100.00
17505;BME280;8870;50.950;11.762;2024-03-08T01:05:53;98764.66;;;-1.11;100.00
17505;BME280;8870;50.950;11.762;2024-03-08T01:11:18;98756.81;;;-1.13;100.00
17505;BME280;8870;50.950;11.762;2024-03-08T01:16:54;98747.56;;;-1.21;100.00
17505;BME280;8870;50.950;11.762;2024-03-08T01:22:12;98760.34;;;-1.30;100.00
17505;BME280;8870;50.950;11.762;2024-03-08T01:27:48;98750.22;;;-1.39;100.00
17505;BME280;8870;50.950;11.762;2024-03-08T01:33:09;98739.97;;;-1.45;100.00
17505;BME280;8870;50.950;11.762;2024-03-08T01:38:47;98734.06;;;-1.50;100.00
17505;BME280;8870;50.950;11.762;2024-03-08T01:44:16;98730.00;;;-1.58;100.00
17505;BME280;8870;50.950;11.762;2024-03-08T01:49:54;98726.75;;;-1.63;100.00
17505;BME280;8870;50.950;11.762;2024-03-08T01:55:16;98725.28;;;-1.68;100.00
17505;BME280;8870;50.950;11.762;2024-03-08T02:00:54;98707.06;;;-1.75;100.00
17505;BME280;8870;50.950;11.762;2024-03-08T02:06:19;98709.91;;;-1.78;100.00
17505;BME280;8870;50.950;11.762;2024-03-08T02:30:06;98697.53;;;-1.95;100.00
17505;BME280;8870;50.950;11.762;2024-03-08T02:35:43;98699.44;;;-1.98;100.00
17505;BME280;8870;50.950;11.762;2024-03-08T02:40:54;98692.63;;;-2.03;100.00
17505;BME280;8870;50.950;11.762;2024-03-08T02:46:29;98688.31;;;-2.05;100.00
17505;BME280;8870;50.950;11.762;2024-03-08T02:51:47;98691.91;;;-2.06;100.00
17505;BME280;8870;50.950;11.762;2024-03-08T02:57:19;98684.16;;;-2.09;100.00
17505;BME280;8870;50.950;11.762;2024-03-08T03:14:55;98677.16;;;-1.93;100.00
17505;BME280;8870;50.950;11.762;2024-03-08T03:21:02;98684.94;;;-1.90;100.00
17505;BME280;8870;50.950;11.762;2024-03-08T03:26:56;98671.88;;;-1.93;100.00
17505;BME280;8870;50.950;11.762;2024-03-08T03:32:47;98669.31;;;-1.94;100.00
17505;BME280;8870;50.950;11.762;2024-03-08T03:38:06;98659.91;;;-2.00;100.00
17505;BME280;8870;50.950;11.762;2024-03-08T03:43:38;98662.09;;;-2.08;100.00
17505;BME280;8870;50.950;11.762;2024-03-08T03:49:13;98666.97;;;-2.18;100.00
17505;BME280;8870;50.950;11.762;2024-03-08T03:54:32;98659.41;;;-2.26;100.00
17505;BME280;8870;50.950;11.762;2024-03-08T04:00:06;98654.44;;;-2.32;100.00
17505;BME280;8870;50.950;11.762;2024-03-08T04:05:29;98654.59;;;-2.35;100.00
17505;BME280;8870;50.950;11.762;2024-03-08T04:11:01;98654.91;;;-2.41;100.00
17505;BME280;8870;50.950;11.762;2024-03-08T04:16:20;98645.28;;;-2.42;100.00
17505;BME280;8870;50.950;11.762;2024-03-08T04:21:47;98648.66;;;-2.40;100.00
17505;BME280;8870;50.950;11.762;2024-03-08T04:27:13;98650.69;;;-2.45;100.00
17505;BME280;8870;50.950;11.762;2024-03-08T04:32:31;98648.31;;;-2.52;100.00
17505;BME280;8870;50.950;11.762;2024-03-08T04:38:06;98645.06;;;-2.57;100.00
17505;BME280;8870;50.950;11.762;2024-03-08T04:43:25;98644.06;;;-2.54;100.00
17505;BME280;8870;50.950;11.762;2024-03-08T04:48:45;98647.47;;;-2.52;100.00
17505;BME280;8870;50.950;11.762;2024-03-08T04:54:19;98635.31;;;-2.55;100.00
17505;BME280;8870;50.950;11.762;2024-03-08T04:59:43;98626.75;;;-2.60;100.00
17505;BME280;8870;50.950;11.762;2024-03-08T05:05:01;98626.97;;;-2.65;100.00
17505;BME280;8870;50.950;11.762;2024-03-08T05:10:31;98628.94;;;-2.70;100.00
17505;BME280;8870;50.950;11.762;2024-03-08T05:15:50;98617.88;;;-2.76;100.00
17505;BME280;8870;50.950;11.762;2024-03-08T05:21:22;98626.84;;;-2.81;100.00
17505;BME280;8870;50.950;11.762;2024-03-08T05:26:43;98628.69;;;-2.83;100.00
17505;BME280;8870;50.950;11.762;2024-03-08T05:32:14;98635.81;;;-2.85;100.00
17505;BME280;8870;50.950;11.762;2024-03-08T05:37:32;98633.16;;;-2.85;100.00
17505;BME280;8870;50.950;11.762;2024-03-08T05:43:07;98633.97;;;-2.83;100.00
17505;BME280;8870;50.950;11.762;2024-03-08T05:48:26;98640.06;;;-2.82;100.00
17505;BME280;8870;50.950;11.762;2024-03-08T05:53:57;98633.81;;;-2.80;100.00
17505;BME280;8870;50.950;11.762;2024-03-08T05:59:19;98634.53;;;-2.76;100.00
17505;BME280;8870;50.950;11.762;2024-03-08T06:04:50;98626.41;;;-2.71;100.00
17505;BME280;8870;50.950;11.762;2024-03-08T06:10:09;98627.53;;;-2.58;100.00
17505;BME280;8870;50.950;11.762;2024-03-08T06:15:43;98628.78;;;-2.48;100.00
17505;BME280;8870;50.950;11.762;2024-03-08T06:21:01;98628.34;;;-2.38;100.00
17505;BME280;8870;50.950;11.762;2024-03-08T06:26:34;98635.03;;;-2.31;100.00
17505;BME280;8870;50.950;11.762;2024-03-08T06:31:55;98627.88;;;-2.29;100.00
17505;BME280;8870;50.950;11.762;2024-03-08T06:37:26;98630.47;;;-2.27;100.00
17505;BME280;8870;50.950;11.762;2024-03-08T06:42:44;98618.91;;;-2.25;100.00
17505;BME280;8870;50.950;11.762;2024-03-08T06:48:19;98630.16;;;-2.21;100.00
17505;BME280;8870;50.950;11.762;2024-03-08T06:53:37;98632.56;;;-2.17;100.00
17505;BME280;8870;50.950;11.762;2024-03-08T06:59:08;98633.06;;;-2.08;100.00
17505;BME280;8870;50.950;11.762;2024-03-08T07:04:29;98631.66;;;-1.98;100.00
17505;BME280;8870;50.950;11.762;2024-03-08T07:10:00;98630.25;;;-1.88;100.00
17505;BME280;8870;50.950;11.762;2024-03-08T07:15:18;98623.56;;;-1.77;100.00
17505;BME280;8870;50.950;11.762;2024-03-08T07:20:53;98616.81;;;-1.65;100.00
17505;BME280;8870;50.950;11.762;2024-03-08T07:26:15;98621.28;;;-1.50;100.00
17505;BME280;8870;50.950;11.762;2024-03-08T07:31:46;98613.16;;;-1.29;100.00
17505;BME280;8870;50.950;11.762;2024-03-08T07:37:19;98616.28;;;-1.05;100.00
17505;BME280;8870;50.950;11.762;2024-03-08T07:42:50;98606.75;;;-0.75;100.00
17505;BME280;8870;50.950;11.762;2024-03-08T07:48:08;98607.75;;;-0.46;100.00
17505;BME280;8870;50.950;11.762;2024-03-08T07:53:42;98593.78;;;-0.18;100.00
17505;BME280;8870;50.950;11.762;2024-03-08T07:59:00;98587.81;;;0.09;100.00
17505;BME280;8870;50.950;11.762;2024-03-08T08:04:33;98581.78;;;0.36;100.00
17505;BME280;8870;50.950;11.762;2024-03-08T08:09:55;98578.69;;;0.58;100.00
17505;BME280;8870;50.950;11.762;2024-03-08T08:15:28;98571.28;;;0.78;100.00
17505;BME280;8870;50.950;11.762;2024-03-08T08:20:46;98563.13;;;0.96;100.00
17505;BME280;8870;50.950;11.762;2024-03-08T08:26:29;98557.59;;;1.13;100.00
17505;BME280;8870;50.950;11.762;2024-03-08T08:31:51;98548.75;;;1.27;100.00
17505;BME280;8870;50.950;11.762;2024-03-08T08:37:22;98547.56;;;1.46;100.00
17505;BME280;8870;50.950;11.762;2024-03-08T08:42:43;98548.91;;;1.66;100.00
17505;BME280;8870;50.950;11.762;2024-03-08T08:48:14;98546.72;;;1.85;100.00
17505;BME280;8870;50.950;11.762;2024-03-08T08:53:39;98539.09;;;2.07;100.00
17505;BME280;8870;50.950;11.762;2024-03-08T08:59:13;98539.53;;;2.26;100.00
17505;BME280;8870;50.950;11.762;2024-03-08T09:04:34;98542.84;;;2.43;100.00
17505;BME280;8870;50.950;11.762;2024-03-08T09:10:06;98514.72;;;2.65;100.00
17505;BME280;8870;50.950;11.762;2024-03-08T09:15:28;98512.56;;;2.83;100.00
17505;BME280;8870;50.950;11.762;2024-03-08T09:21:04;98495.91;;;3.05;100.00
17505;BME280;8870;50.950;11.762;2024-03-08T09:26:24;98499.53;;;3.28;100.00
17505;BME280;8870;50.950;11.762;2024-03-08T09:31:58;98487.53;;;3.47;100.00
17505;BME280;8870;50.950;11.762;2024-03-08T09:37:16;98480.94;;;3.64;100.00
17505;BME280;8870;50.950;11.762;2024-03-08T09:42:48;98476.75;;;3.84;100.00
17505;BME280;8870;50.950;11.762;2024-03-08T09:48:11;98477.13;;;4.02;100.00
17505;BME280;8870;50.950;11.762;2024-03-08T09:53:42;98463.72;;;4.15;100.00
17505;BME280;8870;50.950;11.762;2024-03-08T09:59:01;98452.09;;;4.27;100.00
17505;BME280;8870;50.950;11.762;2024-03-08T10:05:07;98442.16;;;4.41;100.00
17505;BME280;8870;50.950;11.762;2024-03-08T10:10:26;98444.69;;;4.54;100.00
17505;BME280;8870;50.950;11.762;2024-03-08T10:15:58;98441.66;;;4.70;100.00
17505;BME280;8870;50.950;11.762;2024-03-08T10:21:20;98417.38;;;4.84;100.00
17505;BME280;8870;50.950;11.762;2024-03-08T10:26:52;98414.88;;;5.04;100.00
17505;BME280;8870;50.950;11.762;2024-03-08T10:32:11;98417.75;;;5.12;100.00
17505;BME280;8870;50.950;11.762;2024-03-08T10:37:48;98410.31;;;5.27;100.00
17505;BME280;8870;50.950;11.762;2024-03-08T10:43:21;98408.63;;;5.47;100.00
17505;BME280;8870;50.950;11.762;2024-03-08T10:49:00;98404.78;;;5.61;100.00
17505;BME280;8870;50.950;11.762;2024-03-08T10:54:25;98403.34;;;5.78;100.00
17505;BME280;8870;50.950;11.762;2024-03-08T10:59:59;98395.44;;;5.98;100.00
17505;BME280;8870;50.950;11.762;2024-03-08T11:05:32;98386.28;;;6.22;100.00
17505;BME280;8870;50.950;11.762;2024-03-08T11:11:23;98377.22;;;6.44;100.00
17505;BME280;8870;50.950;11.762;2024-03-08T11:16:44;98366.97;;;6.59;100.00
17505;BME280;8870;50.950;11.762;2024-03-08T11:22:25;98363.63;;;6.76;100.00
17505;BME280;8870;50.950;11.762;2024-03-08T11:28:06;98350.53;;;6.93;100.00
17505;BME280;8870;50.950;11.762;2024-03-08T11:33:46;98352.25;;;7.04;100.00
17505;BME280;8870;50.950;11.762;2024-03-08T11:39:04;98336.31;;;7.12;100.00
17505;BME280;8870;50.950;11.762;2024-03-08T11:44:39;98322.06;;;7.21;100.00
17505;BME280;8870;50.950;11.762;2024-03-08T11:49:59;98314.28;;;7.28;100.00
17505;BME280;8870;50.950;11.762;2024-03-08T11:55:32;98315.69;;;7.42;100.00
17505;BME280;8870;50.950;11.762;2024-03-08T12:01:02;98297.88;;;7.61;100.00
17505;BME280;8870;50.950;11.762;2024-03-08T12:06:39;98282.84;;;7.78;100.00
17505;BME280;8870;50.950;11.762;2024-03-08T12:11:58;98278.09;;;7.99;100.00
17505;BME280;8870;50.950;11.762;2024-03-08T12:22:48;98256.03;;;8.33;100.00
17505;BME280;8870;50.950;11.762;2024-03-08T12:28:21;98253.56;;;8.50;100.00
17505;BME280;8870;50.950;11.762;2024-03-08T12:33:48;98237.06;;;8.63;100.00
17505;BME280;8870;50.950;11.762;2024-03-08T12:39:23;98234.34;;;8.81;100.00
17505;BME280;8870;50.950;11.762;2024-03-08T12:44:41;98226.75;;;8.94;100.00
17505;BME280;8870;50.950;11.762;2024-03-08T12:50:13;98216.28;;;9.09;100.00
17505;BME280;8870;50.950;11.762;2024-03-08T12:55:34;98207.00;;;9.30;100.00
17505;BME280;8870;50.950;11.762;2024-03-08T13:01:06;98198.84;;;9.40;100.00
17505;BME280;8870;50.950;11.762;2024-03-08T13:06:26;98192.50;;;9.49;100.00
17505;BME280;8870;50.950;11.762;2024-03-08T13:12:00;98180.75;;;9.59;100.00
17505;BME280;8870;50.950;11.762;2024-03-08T13:17:18;98171.38;;;9.63;100.00
17505;BME280;8870;50.950;11.762;2024-03-08T13:22:51;98163.91;;;9.83;100.00
17505;BME280;8870;50.950;11.762;2024-03-08T13:28:13;98155.03;;;9.99;100.00
17505;BME280;8870;50.950;11.762;2024-03-08T13:33:49;98151.38;;;10.16;100.00
17505;BME280;8870;50.950;11.762;2024-03-08T13:39:12;98134.22;;;10.34;100.00
17505;BME280;8870;50.950;11.762;2024-03-08T13:44:50;98134.97;;;10.61;100.00
17505;BME280;8870;50.950;11.762;2024-03-08T13:50:10;98139.50;;;10.77;100.00
17505;BME280;8870;50.950;11.762;2024-03-08T13:55:43;98113.19;;;11.04;100.00
17505;BME280;8870;50.950;11.762;2024-03-08T14:01:21;98100.13;;;11.24;100.00
17505;BME280;8870;50.950;11.762;2024-03-08T14:06:40;98091.66;;;11.35;100.00
17505;BME280;8870;50.950;11.762;2024-03-08T14:12:16;98087.03;;;11.61;100.00
17505;BME280;8870;50.950;11.762;2024-03-08T14:17:56;98078.91;;;11.92;100.00
17505;BME280;8870;50.950;11.762;2024-03-08T14:23:16;98070.78;;;12.00;100.00
17505;BME280;8870;50.950;11.762;2024-03-08T14:28:49;98065.09;;;11.87;100.00
17505;BME280;8870;50.950;11.762;2024-03-08T14:34:12;98056.22;;;12.10;100.00
17505;BME280;8870;50.950;11.762;2024-03-08T14:39:45;98055.78;;;12.21;100.00
17505;BME280;8870;50.950;11.762;2024-03-08T14:45:05;98045.22;;;12.35;100.00
17505;BME280;8870;50.950;11.762;2024-03-08T14:50:40;98041.97;;;12.39;100.00
17505;BME280;8870;50.950;11.762;2024-03-08T14:56:06;98031.03;;;12.32;100.00
17505;BME280;8870;50.950;11.762;2024-03-08T15:01:40;98035.78;;;12.30;100.00
17505;BME280;8870;50.950;11.762;2024-03-08T15:07:03;98014.84;;;12.32;100.00
17505;BME280;8870;50.950;11.762;2024-03-08T15:12:35;98011.97;;;12.34;100.00
17505;BME280;8870;50.950;11.762;2024-03-08T15:18:00;98008.31;;;12.42;100.00
17505;BME280;8870;50.950;11.762;2024-03-08T15:23:36;98007.03;;;12.38;100.00
17505;BME280;8870;50.950;11.762;2024-03-08T15:28:59;97996.28;;;12.29;100.00
17505;BME280;8870;50.950;11.762;2024-03-08T15:34:30;97994.63;;;12.28;100.00
17505;BME280;8870;50.950;11.762;2024-03-08T15:39:56;97992.56;;;12.30;100.00
17505;BME280;8870;50.950;11.762;2024-03-08T15:45:28;97982.16;;;12.27;100.00
17505;BME280;8870;50.950;11.762;2024-03-08T15:50:48;97980.47;;;12.26;100.00
17505;BME280;8870;50.950;11.762;2024-03-08T15:56:21;97973.09;;;12.20;100.00
17505;BME280;8870;50.950;11.762;2024-03-08T16:01:53;97969.03;;;12.01;100.00
17505;BME280;8870;50.950;11.762;2024-03-08T16:07:12;97982.63;;;11.84;100.00
17505;BME280;8870;50.950;11.762;2024-03-08T16:12:46;97977.69;;;11.65;100.00
17505;BME280;8870;50.950;11.762;2024-03-08T16:18:05;97956.31;;;11.40;100.00
17505;BME280;8870;50.950;11.762;2024-03-08T16:23:37;97959.66;;;11.10;100.00
17505;BME280;8870;50.950;11.762;2024-03-08T16:28:58;97953.22;;;10.80;100.00
17505;BME280;8870;50.950;11.762;2024-03-08T16:34:29;97957.88;;;10.46;100.00
17505;BME280;8870;50.950;11.762;2024-03-08T16:39:49;97950.13;;;10.18;100.00
17505;BME280;8870;50.950;11.762;2024-03-08T16:45:24;97947.16;;;9.80;100.00
17505;BME280;8870;50.950;11.762;2024-03-08T16:50:42;97948.97;;;9.38;100.00
17505;BME280;8870;50.950;11.762;2024-03-08T16:56:16;97945.66;;;8.93;100.00
17505;BME280;8870;50.950;11.762;2024-03-08T17:01:50;97935.34;;;8.46;100.00
17505;BME280;8870;50.950;11.762;2024-03-08T17:07:09;97939.84;;;8.11;100.00
17505;BME280;8870;50.950;11.762;2024-03-08T17:12:43;97945.78;;;7.78;100.00
17505;BME280;8870;50.950;11.762;2024-03-08T17:18:05;97953.94;;;7.50;100.00
17505;BME280;8870;50.950;11.762;2024-03-08T17:23:37;97953.00;;;7.23;100.00
17505;BME280;8870;50.950;11.762;2024-03-08T17:28:56;97946.41;;;7.00;100.00
17505;BME280;8870;50.950;11.762;2024-03-08T17:34:32;97949.31;;;6.78;100.00
17505;BME280;8870;50.950;11.762;2024-03-08T17:39:50;97953.63;;;6.61;100.00
17505;BME280;8870;50.950;11.762;2024-03-08T17:45:27;97944.72;;;6.43;100.00
17505;BME280;8870;50.950;11.762;2024-03-08T17:50:51;97941.66;;;6.28;100.00
17505;BME280;8870;50.950;11.762;2024-03-08T17:56:23;97942.94;;;6.14;100.00
17505;BME280;8870;50.950;11.762;2024-03-08T18:01:55;97947.75;;;6.00;100.00
17505;BME280;8870;50.950;11.762;2024-03-08T18:07:16;97947.91;;;5.89;100.00
17505;BME280;8870;50.950;11.762;2024-03-08T18:12:49;97942.16;;;5.74;100.00
17505;BME280;8870;50.950;11.762;2024-03-08T18:18:10;97938.94;;;5.61;100.00
17505;BME280;8870;50.950;11.762;2024-03-08T18:23:43;97941.03;;;5.47;100.00
17505;BME280;8870;50.950;11.762;2024-03-08T18:29:02;97930.78;;;5.33;100.00
17505;BME280;8870;50.950;11.762;2024-03-08T18:34:37;97926.44;;;5.22;100.00
17505;BME280;8870;50.950;11.762;2024-03-08T18:40:03;97911.09;;;5.14;100.00
17505;BME280;8870;50.950;11.762;2024-03-08T18:45:37;97906.75;;;5.03;100.00
17505;BME280;8870;50.950;11.762;2024-03-08T18:50:57;97918.94;;;4.96;100.00
17505;BME280;8870;50.950;11.762;2024-03-08T18:56:31;97914.59;;;4.85;100.00
17505;BME280;8870;50.950;11.762;2024-03-08T19:02:08;97919.75;;;4.77;100.00
17505;BME280;8870;50.950;11.762;2024-03-08T19:07:29;97918.03;;;4.66;100.00
17505;BME280;8870;50.950;11.762;2024-03-08T19:13:03;97912.41;;;4.59;100.00
17505;BME280;8870;50.950;11.762;2024-03-08T19:18:24;97917.59;;;4.51;100.00
17505;BME280;8870;50.950;11.762;2024-03-08T19:23:56;97909.69;;;4.40;100.00
17505;BME280;8870;50.950;11.762;2024-03-08T19:29:17;97908.53;;;4.32;100.00
17505;BME280;8870;50.950;11.762;2024-03-08T19:34:39;97886.88;;;4.26;100.00
17505;BME280;8870;50.950;11.762;2024-03-08T19:40:13;97882.81;;;4.22;100.00
17505;BME280;8870;50.950;11.762;2024-03-08T19:45:39;97880.25;;;4.20;100.00
17505;BME280;8870;50.950;11.762;2024-03-08T19:51:14;97890.94;;;4.20;100.00
17505;BME280;8870;50.950;11.762;2024-03-08T19:56:33;97894.84;;;4.16;100.00
17505;BME280;8870;50.950;11.762;2024-03-08T20:02:08;97891.03;;;4.09;100.00
17505;BME280;8870;50.950;11.762;2024-03-08T20:07:28;97883.00;;;3.99;100.00
17505;BME280;8870;50.950;11.762;2024-03-08T20:12:59;97879.31;;;3.90;100.00
17505;BME280;8870;50.950;11.762;2024-03-08T20:18:19;97881.78;;;3.82;100.00
17505;BME280;8870;50.950;11.762;2024-03-08T20:23:51;97882.56;;;3.73;100.00
17505;BME280;8870;50.950;11.762;2024-03-08T20:29:10;97875.94;;;3.67;100.00
17505;BME280;8870;50.950;11.762;2024-03-08T20:34:43;97874.63;;;3.61;100.00
17505;BME280;8870;50.950;11.762;2024-03-08T20:40:02;97880.75;;;3.52;100.00
17505;BME280;8870;50.950;11.762;2024-03-08T20:45:34;97886.47;;;3.47;100.00
17505;BME280;8870;50.950;11.762;2024-03-08T20:50:55;97887.97;;;3.40;100.00
17505;BME280;8870;50.950;11.762;2024-03-08T20:56:28;97878.94;;;3.31;100.00
17505;BME280;8870;50.950;11.762;2024-03-08T21:01:59;97865.53;;;3.21;100.00
17505;BME280;8870;50.950;11.762;2024-03-08T21:07:20;97858.09;;;3.15;100.00
17505;BME280;8870;50.950;11.762;2024-03-08T21:12:54;97852.44;;;3.08;100.00
17505;BME280;8870;50.950;11.762;2024-03-08T21:18:14;97843.13;;;3.03;100.00
17505;BME280;8870;50.950;11.762;2024-03-08T21:23:49;97845.72;;;2.93;100.00
17505;BME280;8870;50.950;11.762;2024-03-08T21:29:09;97841.00;;;2.85;100.00
17505;BME280;8870;50.950;11.762;2024-03-08T21:34:41;97838.75;;;2.81;100.00
17505;BME280;8870;50.950;11.762;2024-03-08T21:40:03;97832.97;;;2.75;100.00
17505;BME280;8870;50.950;11.762;2024-03-08T21:45:43;97834.91;;;2.73;100.00
17505;BME280;8870;50.950;11.762;2024-03-08T21:51:01;97832.25;;;2.73;100.00
17505;BME280;8870;50.950;11.762;2024-03-08T21:56:38;97828.00;;;2.71;100.00
17505;BME280;8870;50.950;11.762;2024-03-08T22:02:09;97819.56;;;2.66;100.00
17505;BME280;8870;50.950;11.762;2024-03-08T22:07:29;97810.28;;;2.60;100.00
17505;BME280;8870;50.950;11.762;2024-03-08T22:13:03;97799.16;;;2.55;100.00
17505;BME280;8870;50.950;11.762;2024-03-08T22:18:25;97797.75;;;2.51;100.00
17505;BME280;8870;50.950;11.762;2024-03-08T22:23:58;97793.41;;;2.50;100.00
17505;BME280;8870;50.950;11.762;2024-03-08T22:29:20;97788.31;;;2.46;100.00
17505;BME280;8870;50.950;11.762;2024-03-08T22:34:51;97790.50;;;2.41;100.00
17505;BME280;8870;50.950;11.762;2024-03-08T22:40:10;97789.31;;;2.34;100.00
17505;BME280;8870;50.950;11.762;2024-03-08T22:45:48;97782.25;;;2.23;100.00
17505;BME280;8870;50.950;11.762;2024-03-08T22:51:08;97787.44;;;2.13;100.00
17505;BME280;8870;50.950;11.762;2024-03-08T22:56:46;97789.88;;;2.05;100.00
17505;BME280;8870;50.950;11.762;2024-03-08T23:02:21;97801.50;;;1.93;100.00
17505;BME280;8870;50.950;11.762;2024-03-08T23:07:40;97787.94;;;1.84;100.00
17505;BME280;8870;50.950;11.762;2024-03-08T23:13:04;97788.69;;;1.75;100.00
17505;BME280;8870;50.950;11.762;2024-03-08T23:18:34;97784.84;;;1.68;100.00
17505;BME280;8870;50.950;11.762;2024-03-08T23:23:54;97788.22;;;1.70;100.00
17505;BME280;8870;50.950;11.762;2024-03-08T23:29:26;97788.09;;;1.72;100.00
17505;BME280;8870;50.950;11.762;2024-03-08T23:34:47;97785.31;;;1.73;100.00
17505;BME280;8870;50.950;11.762;2024-03-08T23:40:20;97781.31;;;1.67;100.00
17505;BME280;8870;50.950;11.762;2024-03-08T23:45:38;97783.50;;;1.62;100.00
17505;BME280;8870;50.950;11.762;2024-03-08T23:51:12;97781.44;;;1.54;100.00
17505;BME280;8870;50.950;11.762;2024-03-08T23:56:31;97780.84;;;1.51;100.00
